createdAt,value
2019-03-17T00:01:16.592Z,98901.63
2019-03-17T00:03:48.115Z,98898.83
2019-03-17T00:06:19.735Z,98904.58
2019-03-17T00:08:50.815Z,98909.67
2019-03-17T00:11:22.017Z,98901.45
2019-03-17T00:13:53.112Z,98895.86
2019-03-17T00:16:24.290Z,98908.06
2019-03-17T00:18:55.524Z,98910.44
2019-03-17T00:21:26.715Z,98908.70
2019-03-17T00:23:57.893Z,98911.93
2019-03-17T00:26:30.335Z,98907.19
2019-03-17T00:29:01.590Z,98913.20
2019-03-17T00:31:33.340Z,98916.50
2019-03-17T00:34:04.588Z,98919.61
2019-03-17T00:36:36.498Z,98925.73
2019-03-17T00:39:07.742Z,98925.87
2019-03-17T00:41:38.942Z,98925.29
2019-03-17T00:44:10.182Z,98926.10
2019-03-17T00:46:41.378Z,98925.29
2019-03-17T00:49:12.495Z,98936.06
2019-03-17T00:51:43.695Z,98933.70
2019-03-17T00:54:15.132Z,98940.47
2019-03-17T00:56:46.307Z,98941.41
2019-03-17T00:59:17.505Z,98950.70
2019-03-17T01:01:48.636Z,98956.96
2019-03-17T01:04:19.833Z,98955.34
2019-03-17T01:06:51.118Z,98960.30
2019-03-17T01:09:22.761Z,98967.30
2019-03-17T01:11:53.994Z,98963.97
2019-03-17T01:14:25.191Z,98968.63
2019-03-17T01:16:57.490Z,98968.23
2019-03-17T01:19:28.653Z,98969.56
2019-03-17T01:21:59.797Z,98972.13
2019-03-17T01:24:31.054Z,98971.64
2019-03-17T01:27:02.215Z,98977.38
2019-03-17T01:29:34.874Z,98978.16
2019-03-17T01:32:06.177Z,98983.39
2019-03-17T01:34:37.395Z,98983.50
2019-03-17T01:37:08.593Z,98983.09
2019-03-17T01:39:39.746Z,98980.28
2019-03-17T01:42:10.897Z,98988.58
2019-03-17T01:44:42.125Z,98991.47
2019-03-17T01:47:13.442Z,98997.40
2019-03-17T01:49:44.743Z,99003.73
2019-03-17T01:52:17.882Z,99003.84
2019-03-17T01:54:48.010Z,99002.70
2019-03-17T01:57:19.187Z,99010.12
2019-03-17T01:59:50.342Z,99003.11
2019-03-17T02:02:22.099Z,98999.92
2019-03-17T02:04:53.538Z,99006.93
2019-03-17T02:07:24.741Z,99006.59
2019-03-17T02:09:55.901Z,99003.03
2019-03-17T02:12:27.099Z,99008.67
2019-03-17T02:14:58.338Z,99014.42
2019-03-17T02:17:29.553Z,99014.38
2019-03-17T02:20:00.859Z,99018.72
2019-03-17T02:22:31.909Z,99025.87
2019-03-17T02:25:03.086Z,99034.06
2019-03-17T02:27:35.269Z,99031.95
2019-03-17T02:30:11.789Z,99037.48
2019-03-17T02:32:42.992Z,99036.22
2019-03-17T02:35:14.136Z,99041.67
2019-03-17T02:37:45.323Z,99037.59
2019-03-17T02:40:16.677Z,99049.09
2019-03-17T02:42:47.855Z,99051.31
2019-03-17T02:45:19.094Z,99055.77
2019-03-17T02:47:50.345Z,99062.92
2019-03-17T02:50:22.498Z,99067.55
2019-03-17T02:52:53.640Z,99073.19
2019-03-17T02:55:24.768Z,99077.00
2019-03-17T02:57:55.907Z,99081.02
2019-03-17T03:00:27.121Z,99084.28
2019-03-17T03:02:59.365Z,99095.06
2019-03-17T03:05:30.581Z,99092.50
2019-03-17T03:08:02.210Z,99105.75
2019-03-17T03:10:33.463Z,99101.94
2019-03-17T03:13:04.592Z,99107.42
2019-03-17T03:15:35.734Z,99107.65
2019-03-17T03:18:06.952Z,99110.39
2019-03-17T03:20:38.128Z,99109.47
2019-03-17T03:23:09.337Z,99125.08
2019-03-17T03:25:40.601Z,99124.30
2019-03-17T03:28:13.427Z,99126.83
2019-03-17T03:30:44.633Z,99129.61
2019-03-17T03:33:15.752Z,99135.50
2019-03-17T03:35:46.923Z,99135.09
2019-03-17T03:38:18.127Z,99140.44
2019-03-17T03:40:50.331Z,99137.40
2019-03-17T03:43:21.491Z,99142.48
2019-03-17T03:45:52.674Z,99143.52
2019-03-17T03:48:23.875Z,99151.23
2019-03-17T03:50:55.077Z,99153.14
2019-03-17T03:53:26.334Z,99151.91
2019-03-17T03:55:57.490Z,99155.92
2019-03-17T03:58:28.682Z,99163.62
2019-03-17T04:00:59.795Z,99162.08
2019-03-17T04:03:30.989Z,99172.53
2019-03-17T04:06:02.162Z,99167.79
2019-03-17T04:08:33.455Z,99182.11
2019-03-17T04:11:04.658Z,99177.25
2019-03-17T04:13:35.794Z,99186.44
2019-03-17T04:16:06.873Z,99200.06
2019-03-17T04:18:38.092Z,99195.65
2019-03-17T04:21:09.323Z,99206.24
2019-03-17T04:23:40.529Z,99202.84
2019-03-17T04:26:11.734Z,99207.27
2019-03-17T04:28:42.901Z,99217.77
2019-03-17T04:31:14.643Z,99219.72
2019-03-17T04:33:46.093Z,99233.69
2019-03-17T04:36:17.250Z,99230.81
2019-03-17T04:38:48.379Z,99228.23
2019-03-17T04:41:19.465Z,99225.27
2019-03-17T04:43:51.719Z,99238.73
2019-03-17T04:46:22.897Z,99236.68
2019-03-17T04:48:54.192Z,99234.05
2019-03-17T04:51:26.598Z,99240.58
2019-03-17T04:53:57.728Z,99241.48
2019-03-17T04:56:30.002Z,99248.08
2019-03-17T04:59:01.192Z,99255.58
2019-03-17T05:01:32.433Z,99250.42
2019-03-17T05:04:03.723Z,99254.84
2019-03-17T05:06:34.857Z,99261.22
2019-03-17T05:09:07.320Z,99259.97
2019-03-17T05:11:38.412Z,99270.55
2019-03-17T05:14:09.610Z,99280.54
2019-03-17T05:16:40.711Z,99281.47
2019-03-17T05:19:12.220Z,99286.78
2019-03-17T05:21:43.481Z,99293.63
2019-03-17T05:24:14.673Z,99295.22
2019-03-17T05:26:45.875Z,99304.28
2019-03-17T05:29:17.060Z,99314.98
2019-03-17T05:31:48.242Z,99312.45
2019-03-17T05:34:19.470Z,99317.99
2019-03-17T05:36:50.701Z,99319.67
2019-03-17T05:39:21.918Z,99318.27
2019-03-17T05:41:53.732Z,99318.25
2019-03-17T05:44:24.938Z,99325.34
2019-03-17T05:46:56.074Z,99332.19
2019-03-17T05:49:27.235Z,99331.37
2019-03-17T05:51:58.558Z,99330.57
2019-03-17T05:54:29.837Z,99329.83
2019-03-17T05:57:01.391Z,99336.16
2019-03-17T05:59:33.150Z,99337.96
2019-03-17T06:02:04.807Z,99341.84
2019-03-17T06:04:36.460Z,99344.86
2019-03-17T06:07:18.243Z,99352.41
2019-03-17T06:09:39.978Z,99354.84
2019-03-17T06:12:11.635Z,99354.43
2019-03-17T06:14:43.266Z,99364.07
2019-03-17T06:17:14.646Z,99365.88
2019-03-17T06:19:45.845Z,99370.03
2019-03-17T06:22:17.535Z,99373.98
2019-03-17T06:24:49.090Z,99381.18
2019-03-17T06:27:20.749Z,99380.49
2019-03-17T06:29:52.305Z,99388.64
2019-03-17T06:32:24.060Z,99393.35
2019-03-17T06:34:56.358Z,99394.28
2019-03-17T06:37:31.198Z,99400.48
2019-03-17T06:39:59.886Z,99400.33
2019-03-17T06:42:31.193Z,99401.14
2019-03-17T06:45:02.520Z,99404.08
2019-03-17T06:47:33.712Z,99402.34
2019-03-17T06:50:08.152Z,99405.95
2019-03-17T06:52:40.352Z,99412.98
2019-03-17T06:55:13.040Z,99415.54
2019-03-17T06:57:44.299Z,99418.43
2019-03-17T07:00:15.814Z,99423.03
2019-03-17T07:02:47.031Z,99423.02
2019-03-17T07:05:18.656Z,99428.92
2019-03-17T07:07:50.210Z,99429.42
2019-03-17T07:10:21.871Z,99430.85
2019-03-17T07:12:53.522Z,99435.16
2019-03-17T07:15:25.081Z,99444.05
2019-03-17T07:17:56.289Z,99444.17
2019-03-17T07:20:27.668Z,99451.28
2019-03-17T07:22:59.065Z,99452.66
2019-03-17T07:25:30.282Z,99451.69
2019-03-17T07:28:01.506Z,99459.23
2019-03-17T07:30:33.067Z,99462.25
2019-03-17T07:33:04.279Z,99455.88
2019-03-17T07:35:35.541Z,99462.98
2019-03-17T07:38:07.110Z,99469.92
2019-03-17T07:40:38.335Z,99470.99
2019-03-17T07:43:09.543Z,99478.76
2019-03-17T07:45:41.110Z,99471.67
2019-03-17T07:48:13.969Z,99471.70
2019-03-17T07:50:45.153Z,99473.58
2019-03-17T07:53:16.693Z,99481.16
2019-03-17T07:55:47.868Z,99470.45
2019-03-17T07:58:19.100Z,99472.36
2019-03-17T08:00:50.419Z,99477.19
2019-03-17T08:03:21.563Z,99483.84
2019-03-17T08:05:52.749Z,99484.64
2019-03-17T08:08:23.961Z,99494.30
2019-03-17T08:10:55.452Z,99494.34
2019-03-17T08:13:27.007Z,99500.13
2019-03-17T08:15:58.038Z,99504.02
2019-03-17T08:18:29.297Z,99506.83
2019-03-17T08:21:00.493Z,99510.03
2019-03-17T08:23:31.656Z,99515.76
2019-03-17T08:26:02.924Z,99517.07
2019-03-17T08:28:34.154Z,99516.58
2019-03-17T08:31:05.349Z,99525.28
2019-03-17T08:33:36.502Z,99530.68
2019-03-17T08:36:07.660Z,99532.02
2019-03-17T08:38:38.820Z,99534.13
2019-03-17T08:41:10.021Z,99540.30
2019-03-17T08:43:53.513Z,99547.92
2019-03-17T08:46:13.657Z,99546.66
2019-03-17T08:48:45.093Z,99547.94
2019-03-17T08:51:16.538Z,99546.58
2019-03-17T08:53:48.184Z,99548.89
2019-03-17T08:56:19.628Z,99557.98
2019-03-17T08:58:51.277Z,99549.36
2019-03-17T09:01:22.764Z,99551.92
2019-03-17T09:03:55.925Z,99548.03
2019-03-17T09:06:28.193Z,99555.47
2019-03-17T09:08:59.540Z,99562.61
2019-03-17T09:11:31.196Z,99563.89
2019-03-17T09:14:02.701Z,99568.32
2019-03-17T09:16:34.198Z,99575.34
2019-03-17T09:19:05.707Z,99575.89
2019-03-17T09:21:39.357Z,99574.86
2019-03-17T09:24:17.186Z,99583.97
2019-03-17T09:26:43.426Z,99581.20
2019-03-17T09:29:14.475Z,99587.80
2019-03-17T09:31:45.638Z,99578.36
2019-03-17T09:34:16.734Z,99580.03
2019-03-17T09:36:47.962Z,99583.10
2019-03-17T09:39:19.219Z,99585.02
2019-03-17T09:41:50.994Z,99591.19
2019-03-17T09:44:22.133Z,99595.91
2019-03-17T09:46:53.385Z,99602.66
2019-03-17T09:49:24.695Z,99605.36
2019-03-17T09:51:55.908Z,99612.02
2019-03-17T09:54:27.222Z,99612.33
2019-03-17T09:56:58.420Z,99617.74
2019-03-17T09:59:29.621Z,99618.02
2019-03-17T10:02:00.824Z,99612.30
2019-03-17T10:04:32.221Z,99622.94
2019-03-17T10:07:03.416Z,99617.08
2019-03-17T10:09:34.616Z,99612.30
2019-03-17T10:12:05.825Z,99626.48
2019-03-17T10:14:37.022Z,99631.67
2019-03-17T10:17:08.475Z,99631.73
2019-03-17T10:19:39.582Z,99632.53
2019-03-17T10:22:10.936Z,99638.39
2019-03-17T10:24:42.142Z,99644.91
2019-03-17T10:27:13.740Z,99644.42
2019-03-17T10:29:44.941Z,99643.59
2019-03-17T10:32:16.426Z,99642.19
2019-03-17T10:34:47.619Z,99642.92
2019-03-17T10:37:18.866Z,99641.13
2019-03-17T10:39:50.261Z,99643.75
2019-03-17T10:42:21.621Z,99645.18
2019-03-17T10:44:52.772Z,99648.11
2019-03-17T10:47:24.392Z,99649.40
2019-03-17T10:49:56.047Z,99648.54
2019-03-17T10:52:27.786Z,99659.95
2019-03-17T10:54:59.250Z,99666.42
2019-03-17T10:57:30.754Z,99662.91
2019-03-17T11:00:02.459Z,99667.02
2019-03-17T11:02:34.188Z,99670.48
2019-03-17T11:05:06.707Z,99676.19
2019-03-17T11:07:38.243Z,99673.59
2019-03-17T11:10:11.443Z,99669.88
2019-03-17T11:12:42.782Z,99680.34
2019-03-17T11:15:19.563Z,99684.33
2019-03-17T11:17:51.421Z,99684.16
2019-03-17T11:20:22.821Z,99686.07
2019-03-17T11:22:55.495Z,99688.71
2019-03-17T11:25:27.288Z,99693.44
2019-03-17T11:27:58.839Z,99690.23
2019-03-17T11:30:30.168Z,99694.23
2019-03-17T11:33:01.368Z,99698.27
2019-03-17T11:35:32.598Z,99694.25
2019-03-17T11:38:03.749Z,99694.52
2019-03-17T11:40:34.871Z,99691.17
2019-03-17T11:43:06.087Z,99688.72
2019-03-17T11:45:38.770Z,99683.16
2019-03-17T11:48:09.985Z,99683.55
2019-03-17T11:50:41.309Z,99689.88
2019-03-17T11:53:12.962Z,99705.16
2019-03-17T11:55:44.496Z,99716.33
2019-03-17T11:58:15.697Z,99729.18
2019-03-17T12:00:47.208Z,99729.95
2019-03-17T12:03:18.766Z,99735.06
2019-03-17T12:05:50.470Z,99748.42
2019-03-17T12:08:22.930Z,99758.48
2019-03-17T12:10:54.087Z,99759.09
2019-03-17T12:13:25.288Z,99764.13
2019-03-17T12:15:56.503Z,99762.93
2019-03-17T12:18:27.707Z,99762.90
2019-03-17T12:20:58.963Z,99770.50
2019-03-17T12:23:30.302Z,99774.00
2019-03-17T12:26:02.847Z,99771.87
2019-03-17T12:28:34.501Z,99774.33
2019-03-17T12:31:05.949Z,99781.45
2019-03-17T12:33:37.424Z,99782.94
2019-03-17T12:36:08.626Z,99791.28
2019-03-17T12:38:39.814Z,99790.48
2019-03-17T12:41:10.966Z,99791.25
2019-03-17T12:43:42.293Z,99782.84
2019-03-17T12:46:13.461Z,99785.86
2019-03-17T12:48:44.741Z,99792.01
2019-03-17T12:51:16.027Z,99791.77
2019-03-17T12:53:47.180Z,99792.30
2019-03-17T12:56:18.346Z,99796.67
2019-03-17T12:58:49.438Z,99796.80
2019-03-17T13:01:20.646Z,99793.97
2019-03-17T13:03:51.819Z,99802.31
2019-03-17T13:06:23.246Z,99798.95
2019-03-17T13:08:54.529Z,99800.86
2019-03-17T13:11:25.723Z,99802.64
2019-03-17T13:13:56.807Z,99804.52
2019-03-17T13:16:27.909Z,99811.18
2019-03-17T13:18:59.063Z,99811.30
2019-03-17T13:21:30.269Z,99812.37
2019-03-17T13:24:01.643Z,99815.22
2019-03-17T13:26:32.757Z,99818.63
2019-03-17T13:29:04.527Z,99830.77
2019-03-17T13:31:36.063Z,99832.22
2019-03-17T13:34:07.722Z,99833.16
2019-03-17T13:36:39.378Z,99837.97
2019-03-17T13:39:10.886Z,99841.44
2019-03-17T13:41:42.438Z,99843.41
2019-03-17T13:44:14.185Z,99844.16
2019-03-17T13:46:46.184Z,99849.78
2019-03-17T13:49:17.458Z,99848.16
2019-03-17T13:51:49.011Z,99844.84
2019-03-17T13:54:20.765Z,99848.95
2019-03-17T13:56:52.205Z,99853.11
2019-03-17T13:59:23.665Z,99860.64
2019-03-17T14:01:55.321Z,99854.86
2019-03-17T14:04:27.079Z,99857.53
2019-03-17T14:06:58.427Z,99865.58
2019-03-17T14:09:31.725Z,99867.59
2019-03-17T14:12:02.204Z,99873.27
2019-03-17T14:14:33.851Z,99879.59
2019-03-17T14:17:05.565Z,99888.52
2019-03-17T14:19:38.244Z,99888.22
2019-03-17T14:22:10.104Z,99890.53
2019-03-17T14:24:41.701Z,99901.11
2019-03-17T14:27:12.902Z,99903.38
2019-03-17T14:29:43.990Z,99912.84
2019-03-17T14:32:15.199Z,99907.69
2019-03-17T14:34:46.359Z,99914.41
2019-03-17T14:37:17.600Z,99917.70
2019-03-17T14:39:48.815Z,99935.56
2019-03-17T14:42:21.303Z,99934.42
2019-03-17T14:44:52.542Z,99935.10
2019-03-17T14:47:23.735Z,99933.48
2019-03-17T14:49:56.176Z,99935.61
2019-03-17T14:52:28.680Z,99947.20
2019-03-17T14:55:01.123Z,99954.30
2019-03-17T14:57:32.871Z,99956.51
2019-03-17T15:00:09.933Z,99959.25
2019-03-17T15:02:41.410Z,99958.94
2019-03-17T15:05:12.959Z,99968.16
2019-03-17T15:07:44.400Z,99964.20
2019-03-17T15:10:22.519Z,99969.24
2019-03-17T15:12:54.150Z,99970.59
2019-03-17T15:15:25.853Z,99979.27
2019-03-17T15:17:57.847Z,99984.70
2019-03-17T15:20:29.559Z,99989.45
2019-03-17T15:23:01.110Z,99995.52
2019-03-17T15:25:32.788Z,99998.23
2019-03-17T15:28:04.150Z,100003.69
2019-03-17T15:30:36.417Z,100005.26
2019-03-17T15:33:08.063Z,100004.55
2019-03-17T15:35:39.403Z,100015.62
2019-03-17T15:38:10.717Z,100022.92
2019-03-17T15:40:42.031Z,100022.51
2019-03-17T15:43:13.219Z,100025.12
2019-03-17T15:45:44.372Z,100037.52
2019-03-17T15:48:15.538Z,100037.44
2019-03-17T15:50:47.080Z,100036.84
2019-03-17T15:53:19.859Z,100044.40
2019-03-17T15:55:51.094Z,100042.91
2019-03-17T15:58:22.265Z,100054.37
2019-03-17T16:00:53.797Z,100049.67
2019-03-17T16:03:27.407Z,100055.09
2019-03-17T16:05:58.929Z,100059.56
2019-03-17T16:08:30.266Z,100057.89
2019-03-17T16:11:01.644Z,100060.81
2019-03-17T16:13:34.719Z,100065.08
2019-03-17T16:16:06.080Z,100070.20
2019-03-17T16:18:37.530Z,100072.38
2019-03-17T16:21:09.760Z,100072.52
2019-03-17T16:23:40.914Z,100080.44
2019-03-17T16:26:12.199Z,100082.59
2019-03-17T16:28:45.181Z,100084.06
2019-03-17T16:31:16.175Z,100090.15
2019-03-17T16:33:47.677Z,100099.57
2019-03-17T16:36:19.328Z,100101.02
2019-03-17T16:38:50.881Z,100101.58
2019-03-17T16:41:22.641Z,100108.08
2019-03-17T16:43:54.231Z,100103.14
2019-03-17T16:46:25.848Z,100110.54
2019-03-17T16:48:57.392Z,100113.30
2019-03-17T16:51:29.165Z,100124.00
2019-03-17T16:54:00.408Z,100131.22
2019-03-17T16:56:32.165Z,100132.94
2019-03-17T16:59:04.338Z,100134.82
2019-03-17T17:01:35.891Z,100141.59
2019-03-17T17:04:09.056Z,100143.86
2019-03-17T17:06:40.466Z,100146.75
2019-03-17T17:09:12.090Z,100153.88
2019-03-17T17:11:55.769Z,100156.41
2019-03-17T17:14:19.765Z,100165.41
2019-03-17T17:16:51.254Z,100162.16
2019-03-17T17:19:22.903Z,100162.84
2019-03-17T17:21:54.559Z,100172.11
2019-03-17T17:24:26.062Z,100169.52
2019-03-17T17:26:57.661Z,100176.65
2019-03-17T17:29:29.327Z,100169.95
2019-03-17T17:32:01.899Z,100180.44
2019-03-17T17:34:33.427Z,100178.39
2019-03-17T17:37:04.687Z,100175.52
2019-03-17T17:39:35.963Z,100178.61
2019-03-17T17:42:09.880Z,100180.24
2019-03-17T17:44:40.142Z,100187.14
2019-03-17T17:47:11.383Z,100186.27
2019-03-17T17:49:42.775Z,100190.38
2019-03-17T17:52:13.980Z,100192.17
2019-03-17T17:54:45.164Z,100191.66
2019-03-17T17:57:16.575Z,100189.40
2019-03-17T17:59:47.851Z,100193.56
2019-03-17T18:02:20.335Z,100202.51
2019-03-17T18:04:52.806Z,100202.25
2019-03-17T18:07:24.263Z,100196.22
2019-03-17T18:09:55.811Z,100207.18
2019-03-17T18:12:27.394Z,100209.57
2019-03-17T18:14:59.104Z,100207.05
2019-03-17T18:17:30.472Z,100214.30
2019-03-17T18:20:03.058Z,100217.59
2019-03-17T18:22:34.813Z,100217.30
2019-03-17T18:25:09.580Z,100223.14
2019-03-17T18:27:40.883Z,100218.27
2019-03-17T18:30:15.170Z,100229.94
2019-03-17T18:32:46.477Z,100226.02
2019-03-17T18:35:17.828Z,100230.22
2019-03-17T18:37:51.052Z,100224.51
2019-03-17T18:40:23.162Z,100237.02
2019-03-17T18:42:54.745Z,100247.78
2019-03-17T18:45:28.829Z,100249.63
2019-03-17T18:48:00.584Z,100248.64
2019-03-17T18:50:32.204Z,100249.63
2019-03-17T18:53:03.542Z,100251.48
2019-03-17T18:55:34.844Z,100256.05
2019-03-17T18:58:06.197Z,100261.45
2019-03-17T19:00:38.044Z,100260.55
2019-03-17T19:03:09.797Z,100266.42
2019-03-17T19:05:41.553Z,100266.48
2019-03-17T19:08:13.214Z,100267.86
2019-03-17T19:10:46.500Z,100265.69
2019-03-17T19:13:17.078Z,100267.92
2019-03-17T19:15:48.487Z,100267.01
2019-03-17T19:18:20.244Z,100265.69
2019-03-17T19:20:51.805Z,100274.23
2019-03-17T19:23:24.718Z,100268.94
2019-03-17T19:25:56.437Z,100272.04
2019-03-17T19:28:28.504Z,100271.08
2019-03-17T19:30:59.752Z,100275.89
2019-03-17T19:33:31.113Z,100275.09
2019-03-17T19:36:02.444Z,100274.28
2019-03-17T19:38:33.797Z,100272.52
2019-03-17T19:41:05.540Z,100270.66
2019-03-17T19:43:36.901Z,100269.74
2019-03-17T19:46:08.661Z,100267.61
2019-03-17T19:48:39.942Z,100271.56
2019-03-17T19:51:11.380Z,100263.59
2019-03-17T19:53:42.722Z,100267.13
2019-03-17T19:56:14.071Z,100265.46
2019-03-17T19:58:45.406Z,100264.02
2019-03-17T20:01:16.675Z,100265.41
2019-03-17T20:03:47.951Z,100272.09
2019-03-17T20:06:19.243Z,100272.62
2019-03-17T20:08:50.505Z,100274.44
2019-03-17T20:11:21.846Z,100279.36
2019-03-17T20:13:53.209Z,100283.42
2019-03-17T20:16:24.571Z,100282.51
2019-03-17T20:18:56.140Z,100282.51
2019-03-17T20:21:27.462Z,100282.88
2019-03-17T20:23:58.788Z,100287.80
2019-03-17T20:26:30.122Z,100293.63
2019-03-17T20:29:01.287Z,100293.67
2019-03-17T20:31:32.562Z,100300.40
2019-03-17T20:34:03.896Z,100293.30
2019-03-17T20:36:35.223Z,100296.44
2019-03-17T20:39:07.068Z,100295.11
2019-03-17T20:41:38.435Z,100285.34
2019-03-17T20:44:09.805Z,100290.73
2019-03-17T20:46:41.124Z,100292.91
2019-03-17T20:49:12.382Z,100293.83
2019-03-17T20:51:43.661Z,100294.34
2019-03-17T20:54:16.297Z,100298.83
2019-03-17T20:56:47.648Z,100302.88
2019-03-17T20:59:19.415Z,100310.03
2019-03-17T21:01:51.007Z,100304.61
2019-03-17T21:04:22.598Z,100304.66
2019-03-17T21:06:54.376Z,100314.95
2019-03-17T21:09:26.233Z,100315.42
2019-03-17T21:11:57.565Z,100306.98
2019-03-17T21:14:28.888Z,100314.99
2019-03-17T21:17:00.251Z,100310.99
2019-03-17T21:19:31.740Z,100310.99
2019-03-17T21:22:03.030Z,100313.99
2019-03-17T21:24:34.320Z,100316.33
2019-03-17T21:27:05.837Z,100318.66
2019-03-17T21:29:37.062Z,100317.80
2019-03-17T21:32:08.410Z,100325.72
2019-03-17T21:34:39.635Z,100328.91
2019-03-17T21:37:10.955Z,100328.10
2019-03-17T21:39:42.294Z,100326.38
2019-03-17T21:42:13.872Z,100338.44
2019-03-17T21:44:45.621Z,100339.38
2019-03-17T21:47:17.485Z,100334.64
2019-03-17T21:49:49.242Z,100335.55
2019-03-17T21:52:21.001Z,100351.98
2019-03-17T21:54:53.678Z,100353.00
2019-03-17T21:57:25.013Z,100352.18
2019-03-17T21:59:56.582Z,100350.84
2019-03-17T22:02:28.354Z,100357.16
2019-03-17T22:05:00.050Z,100360.36
2019-03-17T22:07:31.745Z,100363.97
2019-03-17T22:10:03.158Z,100366.60
2019-03-17T22:12:34.489Z,100363.90
2019-03-17T22:15:11.085Z,100370.64
2019-03-17T22:17:42.469Z,100371.50
2019-03-17T22:20:15.386Z,100375.50
2019-03-17T22:22:46.617Z,100372.37
2019-03-17T22:25:18.049Z,100380.41
2019-03-17T22:27:49.394Z,100375.97
2019-03-17T22:30:21.523Z,100382.67
2019-03-17T22:32:52.919Z,100387.14
2019-03-17T22:35:24.725Z,100385.91
2019-03-17T22:37:56.432Z,100391.23
2019-03-17T22:40:28.190Z,100390.30
2019-03-17T22:42:59.950Z,100396.47
2019-03-17T22:45:31.712Z,100402.70
2019-03-17T22:48:03.465Z,100400.47
2019-03-17T22:50:35.117Z,100406.23
2019-03-17T22:53:06.876Z,100409.38
2019-03-17T22:55:38.533Z,100417.34
2019-03-17T22:58:10.294Z,100412.06
2019-03-17T23:00:43.074Z,100413.00
2019-03-17T23:03:14.479Z,100414.80
2019-03-17T23:05:45.740Z,100418.27
2019-03-17T23:08:17.425Z,100427.63
2019-03-17T23:10:48.762Z,100428.06
2019-03-17T23:13:20.122Z,100427.63
2019-03-17T23:15:51.789Z,100427.11
2019-03-17T23:18:23.546Z,100427.94
2019-03-17T23:20:55.464Z,100418.60
2019-03-17T23:23:26.821Z,100425.37
2019-03-17T23:25:58.187Z,100431.60
2019-03-17T23:28:29.504Z,100431.14
2019-03-17T23:31:00.927Z,100426.67
2019-03-17T23:33:32.229Z,100430.23
2019-03-17T23:36:03.556Z,100425.80
2019-03-17T23:38:35.848Z,100427.60
2019-03-17T23:41:07.127Z,100428.80
2019-03-17T23:43:38.373Z,100437.73
2019-03-17T23:46:09.679Z,100440.34
2019-03-17T23:48:40.931Z,100432.84
2019-03-17T23:51:12.198Z,100440.81
2019-03-17T23:53:43.507Z,100442.17
2019-03-17T23:56:14.955Z,100450.27
2019-03-17T23:58:46.311Z,100447.08
